sensor_id;sensor_type;location;lat;lon;timestamp;temperature;humidity
6102;DHT22;3081;50.584;7.032;2023-03-23T00:01:29;13.10;99.90
6102;DHT22;3081;50.584;7.032;2023-03-23T00:03:58;13.10;99.90
6102;DHT22;3081;50.584;7.032;2023-03-23T00:06:26;13.00;99.90
6102;DHT22;3081;50.584;7.032;2023-03-23T00:08:54;13.00;99.90
6102;DHT22;3081;50.584;7.032;2023-03-23T00:11:26;13.00;99.90
6102;DHT22;3081;50.584;7.032;2023-03-23T00:13:57;13.00;99.90
6102;DHT22;3081;50.584;7.032;2023-03-23T00:16:27;12.90;99.90
6102;DHT22;3081;50.584;7.032;2023-03-23T00:18:57;12.90;99.90
6102;DHT22;3081;50.584;7.032;2023-03-23T00:21:25;12.90;99.90
6102;DHT22;3081;50.584;7.032;2023-03-23T00:24:00;12.90;99.90
6102;DHT22;3081;50.584;7.032;2023-03-23T00:26:27;12.90;99.90
6102;DHT22;3081;50.584;7.032;2023-03-23T00:28:56;12.90;99.90
6102;DHT22;3081;50.584;7.032;2023-03-23T00:31:26;12.90;99.90
6102;DHT22;3081;50.584;7.032;2023-03-23T00:33:57;12.80;99.90
6102;DHT22;3081;50.584;7.032;2023-03-23T00:36:24;12.80;99.90
6102;DHT22;3081;50.584;7.032;2023-03-23T00:38:51;12.80;99.90
6102;DHT22;3081;50.584;7.032;2023-03-23T00:41:18;12.80;99.90
6102;DHT22;3081;50.584;7.032;2023-03-23T00:43:47;12.80;99.90
6102;DHT22;3081;50.584;7.032;2023-03-23T00:46:15;12.80;99.90
6102;DHT22;3081;50.584;7.032;2023-03-23T00:48:42;12.80;99.90
6102;DHT22;3081;50.584;7.032;2023-03-23T00:51:10;12.80;99.90
6102;DHT22;3081;50.584;7.032;2023-03-23T00:53:38;12.80;99.90
6102;DHT22;3081;50.584;7.032;2023-03-23T00:56:06;12.80;99.90
6102;DHT22;3081;50.584;7.032;2023-03-23T00:58:33;12.80;99.90
6102;DHT22;3081;50.584;7.032;2023-03-23T01:01:00;12.80;99.90
6102;DHT22;3081;50.584;7.032;2023-03-23T01:03:29;12.80;99.90
6102;DHT22;3081;50.584;7.032;2023-03-23T01:05:56;12.70;99.90
6102;DHT22;3081;50.584;7.032;2023-03-23T01:08:23;12.70;99.90
6102;DHT22;3081;50.584;7.032;2023-03-23T01:10:50;12.60;99.90
6102;DHT22;3081;50.584;7.032;2023-03-23T01:13:19;12.50;99.90
6102;DHT22;3081;50.584;7.032;2023-03-23T01:15:48;12.50;99.90
6102;DHT22;3081;50.584;7.032;2023-03-23T01:18:15;12.40;99.90
6102;DHT22;3081;50.584;7.032;2023-03-23T01:20:43;12.40;99.90
6102;DHT22;3081;50.584;7.032;2023-03-23T01:23:10;12.40;99.90
6102;DHT22;3081;50.584;7.032;2023-03-23T01:25:37;12.40;99.90
6102;DHT22;3081;50.584;7.032;2023-03-23T01:28:04;12.40;99.90
6102;DHT22;3081;50.584;7.032;2023-03-23T01:30:31;12.40;99.90
6102;DHT22;3081;50.584;7.032;2023-03-23T01:32:58;12.30;99.90
6102;DHT22;3081;50.584;7.032;2023-03-23T01:35:25;12.30;99.90
6102;DHT22;3081;50.584;7.032;2023-03-23T01:37:54;12.30;99.90
6102;DHT22;3081;50.584;7.032;2023-03-23T01:40:21;12.30;99.90
6102;DHT22;3081;50.584;7.032;2023-03-23T01:42:48;12.30;99.90
6102;DHT22;3081;50.584;7.032;2023-03-23T01:45:29;12.30;99.90
6102;DHT22;3081;50.584;7.032;2023-03-23T01:48:03;12.20;99.90
6102;DHT22;3081;50.584;7.032;2023-03-23T01:50:36;12.20;99.90
6102;DHT22;3081;50.584;7.032;2023-03-23T01:53:07;12.20;99.90
6102;DHT22;3081;50.584;7.032;2023-03-23T01:55:36;12.20;99.90
6102;DHT22;3081;50.584;7.032;2023-03-23T01:58:04;12.20;99.90
6102;DHT22;3081;50.584;7.032;2023-03-23T02:00:32;12.20;99.90
6102;DHT22;3081;50.584;7.032;2023-03-23T02:03:00;12.20;99.90
6102;DHT22;3081;50.584;7.032;2023-03-23T02:05:30;12.20;99.90
6102;DHT22;3081;50.584;7.032;2023-03-23T02:07:58;12.20;99.90
6102;DHT22;3081;50.584;7.032;2023-03-23T02:10:30;12.20;99.90
6102;DHT22;3081;50.584;7.032;2023-03-23T02:12:57;12.10;99.90
6102;DHT22;3081;50.584;7.032;2023-03-23T02:15:27;12.10;99.90
6102;DHT22;3081;50.584;7.032;2023-03-23T02:18:03;12.00;99.90
6102;DHT22;3081;50.584;7.032;2023-03-23T02:20:53;11.90;99.90
6102;DHT22;3081;50.584;7.032;2023-03-23T02:24:03;11.90;99.90
6102;DHT22;3081;50.584;7.032;2023-03-23T02:26:47;11.80;99.90
6102;DHT22;3081;50.584;7.032;2023-03-23T02:35:10;11.60;99.90
6102;DHT22;3081;50.584;7.032;2023-03-23T02:37:40;11.50;99.90
6102;DHT22;3081;50.584;7.032;2023-03-23T02:40:22;11.50;99.90
6102;DHT22;3081;50.584;7.032;2023-03-23T02:42:54;11.50;99.90
6102;DHT22;3081;50.584;7.032;2023-03-23T02:45:24;11.50;99.90
6102;DHT22;3081;50.584;7.032;2023-03-23T02:47:54;11.50;99.90
6102;DHT22;3081;50.584;7.032;2023-03-23T02:50:24;11.50;99.90
6102;DHT22;3081;50.584;7.032;2023-03-23T02:52:53;11.50;99.90
6102;DHT22;3081;50.584;7.032;2023-03-23T02:55:22;11.40;99.90
6102;DHT22;3081;50.584;7.032;2023-03-23T02:57:50;11.40;99.90
6102;DHT22;3081;50.584;7.032;2023-03-23T03:00:18;11.30;99.90
6102;DHT22;3081;50.584;7.032;2023-03-23T03:02:47;11.30;99.90
6102;DHT22;3081;50.584;7.032;2023-03-23T03:05:24;11.30;99.90
6102;DHT22;3081;50.584;7.032;2023-03-23T03:08:05;11.30;99.90
6102;DHT22;3081;50.584;7.032;2023-03-23T03:10:41;11.30;99.90
6102;DHT22;3081;50.584;7.032;2023-03-23T03:13:14;11.30;99.90
6102;DHT22;3081;50.584;7.032;2023-03-23T03:15:45;11.30;99.90
6102;DHT22;3081;50.584;7.032;2023-03-23T03:18:20;11.30;99.90
6102;DHT22;3081;50.584;7.032;2023-03-23T03:20:50;11.40;99.90
6102;DHT22;3081;50.584;7.032;2023-03-23T03:23:20;11.40;99.90
6102;DHT22;3081;50.584;7.032;2023-03-23T03:25:50;11.40;99.90
6102;DHT22;3081;50.584;7.032;2023-03-23T03:28:19;11.40;99.90
6102;DHT22;3081;50.584;7.032;2023-03-23T03:30:51;11.50;99.90
6102;DHT22;3081;50.584;7.032;2023-03-23T03:33:19;11.40;99.90
6102;DHT22;3081;50.584;7.032;2023-03-23T03:35:51;11.40;99.90
6102;DHT22;3081;50.584;7.032;2023-03-23T03:38:19;11.40;99.90
6102;DHT22;3081;50.584;7.032;2023-03-23T03:40:47;11.40;99.90
6102;DHT22;3081;50.584;7.032;2023-03-23T03:43:15;11.40;99.90
6102;DHT22;3081;50.584;7.032;2023-03-23T03:45:42;11.40;99.90
6102;DHT22;3081;50.584;7.032;2023-03-23T03:48:10;11.40;99.90
6102;DHT22;3081;50.584;7.032;2023-03-23T03:50:37;11.40;99.90
6102;DHT22;3081;50.584;7.032;2023-03-23T03:53:05;11.50;99.90
6102;DHT22;3081;50.584;7.032;2023-03-23T03:55:32;11.50;99.90
6102;DHT22;3081;50.584;7.032;2023-03-23T03:58:01;11.50;99.90
6102;DHT22;3081;50.584;7.032;2023-03-23T04:00:31;11.60;99.90
6102;DHT22;3081;50.584;7.032;2023-03-23T04:02:58;11.60;99.90
6102;DHT22;3081;50.584;7.032;2023-03-23T04:05:25;11.70;99.90
6102;DHT22;3081;50.584;7.032;2023-03-23T04:07:54;11.70;99.90
6102;DHT22;3081;50.584;7.032;2023-03-23T04:10:27;11.70;99.90
6102;DHT22;3081;50.584;7.032;2023-03-23T04:12:55;11.70;99.90
6102;DHT22;3081;50.584;7.032;2023-03-23T04:15:22;11.70;99.90
6102;DHT22;3081;50.584;7.032;2023-03-23T04:17:50;11.70;99.90
6102;DHT22;3081;50.584;7.032;2023-03-23T04:20:18;11.60;99.90
6102;DHT22;3081;50.584;7.032;2023-03-23T04:22:45;11.60;99.90
6102;DHT22;3081;50.584;7.032;2023-03-23T04:25:15;11.60;99.90
6102;DHT22;3081;50.584;7.032;2023-03-23T04:27:43;11.60;99.90
6102;DHT22;3081;50.584;7.032;2023-03-23T04:30:12;11.60;99.90
6102;DHT22;3081;50.584;7.032;2023-03-23T04:32:40;11.70;99.90
6102;DHT22;3081;50.584;7.032;2023-03-23T04:35:10;11.70;99.90
6102;DHT22;3081;50.584;7.032;2023-03-23T04:37:38;11.70;99.90
6102;DHT22;3081;50.584;7.032;2023-03-23T04:40:07;11.70;99.90
6102;DHT22;3081;50.584;7.032;2023-03-23T04:42:38;11.70;99.90
6102;DHT22;3081;50.584;7.032;2023-03-23T04:45:08;11.70;99.90
6102;DHT22;3081;50.584;7.032;2023-03-23T04:47:36;11.60;99.90
6102;DHT22;3081;50.584;7.032;2023-03-23T04:50:09;11.60;99.90
6102;DHT22;3081;50.584;7.032;2023-03-23T04:52:38;11.60;99.90
6102;DHT22;3081;50.584;7.032;2023-03-23T04:55:07;11.60;99.90
6102;DHT22;3081;50.584;7.032;2023-03-23T04:57:35;11.60;99.90
6102;DHT22;3081;50.584;7.032;2023-03-23T05:00:02;11.60;99.90
6102;DHT22;3081;50.584;7.032;2023-03-23T05:02:34;11.60;99.90
6102;DHT22;3081;50.584;7.032;2023-03-23T05:05:01;11.60;99.90
6102;DHT22;3081;50.584;7.032;2023-03-23T05:07:29;11.60;99.90
6102;DHT22;3081;50.584;7.032;2023-03-23T05:09:56;11.60;99.90
6102;DHT22;3081;50.584;7.032;2023-03-23T05:12:23;11.60;99.90
6102;DHT22;3081;50.584;7.032;2023-03-23T05:14:50;11.60;99.90
6102;DHT22;3081;50.584;7.032;2023-03-23T05:17:17;11.60;99.90
6102;DHT22;3081;50.584;7.032;2023-03-23T05:19:44;11.60;99.90
6102;DHT22;3081;50.584;7.032;2023-03-23T05:22:13;11.60;99.90
6102;DHT22;3081;50.584;7.032;2023-03-23T05:24:41;11.70;99.90
6102;DHT22;3081;50.584;7.032;2023-03-23T05:27:09;11.70;99.90
6102;DHT22;3081;50.584;7.032;2023-03-23T05:29:37;11.70;99.90
6102;DHT22;3081;50.584;7.032;2023-03-23T05:32:06;11.60;99.90
6102;DHT22;3081;50.584;7.032;2023-03-23T05:34:33;11.60;99.90
6102;DHT22;3081;50.584;7.032;2023-03-23T05:37:01;11.60;99.90
6102;DHT22;3081;50.584;7.032;2023-03-23T05:39:29;11.60;99.90
6102;DHT22;3081;50.584;7.032;2023-03-23T05:41:58;11.60;99.90
6102;DHT22;3081;50.584;7.032;2023-03-23T05:44:25;11.60;99.90
6102;DHT22;3081;50.584;7.032;2023-03-23T05:46:52;11.60;99.90
6102;DHT22;3081;50.584;7.032;2023-03-23T05:49:19;11.60;99.90
6102;DHT22;3081;50.584;7.032;2023-03-23T05:51:46;11.60;99.90
6102;DHT22;3081;50.584;7.032;2023-03-23T05:54:15;11.60;99.90
6102;DHT22;3081;50.584;7.032;2023-03-23T05:56:43;11.70;99.90
6102;DHT22;3081;50.584;7.032;2023-03-23T05:59:11;11.70;99.90
6102;DHT22;3081;50.584;7.032;2023-03-23T06:01:38;11.70;99.90
6102;DHT22;3081;50.584;7.032;2023-03-23T06:04:05;11.80;99.90
6102;DHT22;3081;50.584;7.032;2023-03-23T06:06:32;11.90;99.90
6102;DHT22;3081;50.584;7.032;2023-03-23T06:08:59;11.90;99.90
6102;DHT22;3081;50.584;7.032;2023-03-23T06:11:26;11.90;99.90
6102;DHT22;3081;50.584;7.032;2023-03-23T06:13:53;12.00;99.90
6102;DHT22;3081;50.584;7.032;2023-03-23T06:16:21;11.90;99.90
6102;DHT22;3081;50.584;7.032;2023-03-23T06:18:48;11.90;99.90
6102;DHT22;3081;50.584;7.032;2023-03-23T06:21:15;12.00;99.90
6102;DHT22;3081;50.584;7.032;2023-03-23T06:23:44;12.00;99.90
6102;DHT22;3081;50.584;7.032;2023-03-23T06:26:12;12.00;99.90
6102;DHT22;3081;50.584;7.032;2023-03-23T06:28:42;12.00;99.90
6102;DHT22;3081;50.584;7.032;2023-03-23T06:31:09;12.10;99.90
6102;DHT22;3081;50.584;7.032;2023-03-23T06:33:38;12.20;99.90
6102;DHT22;3081;50.584;7.032;2023-03-23T06:36:07;12.30;99.90
6102;DHT22;3081;50.584;7.032;2023-03-23T06:38:34;12.30;99.90
6102;DHT22;3081;50.584;7.032;2023-03-23T06:41:01;12.40;99.90
6102;DHT22;3081;50.584;7.032;2023-03-23T06:43:28;12.50;99.90
6102;DHT22;3081;50.584;7.032;2023-03-23T06:45:57;12.50;99.90
6102;DHT22;3081;50.584;7.032;2023-03-23T06:48:24;12.60;99.90
6102;DHT22;3081;50.584;7.032;2023-03-23T06:50:53;12.70;99.90
6102;DHT22;3081;50.584;7.032;2023-03-23T06:53:20;12.70;99.90
6102;DHT22;3081;50.584;7.032;2023-03-23T06:55:47;12.80;99.90
6102;DHT22;3081;50.584;7.032;2023-03-23T06:58:14;12.80;99.90
6102;DHT22;3081;50.584;7.032;2023-03-23T07:00:41;12.90;99.90
6102;DHT22;3081;50.584;7.032;2023-03-23T07:03:08;13.00;99.90
6102;DHT22;3081;50.584;7.032;2023-03-23T07:05:35;13.10;99.90
6102;DHT22;3081;50.584;7.032;2023-03-23T07:08:04;13.10;99.90
6102;DHT22;3081;50.584;7.032;2023-03-23T07:10:31;13.20;99.90
6102;DHT22;3081;50.584;7.032;2023-03-23T07:12:59;13.20;99.90
6102;DHT22;3081;50.584;7.032;2023-03-23T07:15:26;13.20;99.90
6102;DHT22;3081;50.584;7.032;2023-03-23T07:17:53;13.30;99.90
6102;DHT22;3081;50.584;7.032;2023-03-23T07:20:21;13.30;99.90
6102;DHT22;3081;50.584;7.032;2023-03-23T07:22:48;13.30;99.90
6102;DHT22;3081;50.584;7.032;2023-03-23T07:25:17;13.40;99.90
6102;DHT22;3081;50.584;7.032;2023-03-23T07:27:44;13.50;99.90
6102;DHT22;3081;50.584;7.032;2023-03-23T07:30:12;13.60;99.90
6102;DHT22;3081;50.584;7.032;2023-03-23T07:32:40;13.60;99.90
6102;DHT22;3081;50.584;7.032;2023-03-23T07:35:09;13.70;99.90
6102;DHT22;3081;50.584;7.032;2023-03-23T07:37:36;13.70;99.90
6102;DHT22;3081;50.584;7.032;2023-03-23T07:40:03;13.70;99.90
6102;DHT22;3081;50.584;7.032;2023-03-23T07:42:41;13.70;99.90
6102;DHT22;3081;50.584;7.032;2023-03-23T07:45:10;13.70;99.90
6102;DHT22;3081;50.584;7.032;2023-03-23T07:47:37;13.70;99.90
6102;DHT22;3081;50.584;7.032;2023-03-23T07:50:06;13.80;99.90
6102;DHT22;3081;50.584;7.032;2023-03-23T07:52:34;13.90;99.90
6102;DHT22;3081;50.584;7.032;2023-03-23T07:55:03;14.10;99.90
6102;DHT22;3081;50.584;7.032;2023-03-23T07:57:30;14.30;99.90
6102;DHT22;3081;50.584;7.032;2023-03-23T08:00:00;14.30;99.90
6102;DHT22;3081;50.584;7.032;2023-03-23T08:02:41;14.40;99.90
6102;DHT22;3081;50.584;7.032;2023-03-23T08:05:08;14.40;99.90
6102;DHT22;3081;50.584;7.032;2023-03-23T08:07:35;14.50;99.90
6102;DHT22;3081;50.584;7.032;2023-03-23T08:10:03;14.60;99.90
6102;DHT22;3081;50.584;7.032;2023-03-23T08:12:30;14.70;99.90
6102;DHT22;3081;50.584;7.032;2023-03-23T08:14:58;14.80;99.90
6102;DHT22;3081;50.584;7.032;2023-03-23T08:17:25;14.80;99.90
6102;DHT22;3081;50.584;7.032;2023-03-23T08:19:52;14.80;99.90
6102;DHT22;3081;50.584;7.032;2023-03-23T08:22:20;14.90;99.90
6102;DHT22;3081;50.584;7.032;2023-03-23T08:24:47;14.90;99.90
6102;DHT22;3081;50.584;7.032;2023-03-23T08:27:14;14.90;99.90
6102;DHT22;3081;50.584;7.032;2023-03-23T08:29:41;14.80;99.90
6102;DHT22;3081;50.584;7.032;2023-03-23T08:32:11;14.60;99.90
6102;DHT22;3081;50.584;7.032;2023-03-23T08:34:38;14.40;99.90
6102;DHT22;3081;50.584;7.032;2023-03-23T08:37:05;14.30;99.90
6102;DHT22;3081;50.584;7.032;2023-03-23T08:39:32;14.40;99.90
6102;DHT22;3081;50.584;7.032;2023-03-23T08:41:59;14.30;99.90
6102;DHT22;3081;50.584;7.032;2023-03-23T08:44:26;14.30;99.90
6102;DHT22;3081;50.584;7.032;2023-03-23T08:46:53;14.30;99.90
6102;DHT22;3081;50.584;7.032;2023-03-23T08:49:24;14.30;99.90
6102;DHT22;3081;50.584;7.032;2023-03-23T08:51:51;14.40;99.90
6102;DHT22;3081;50.584;7.032;2023-03-23T08:54:18;14.40;99.90
6102;DHT22;3081;50.584;7.032;2023-03-23T08:56:46;14.50;99.90
6102;DHT22;3081;50.584;7.032;2023-03-23T08:59:12;14.50;99.90
6102;DHT22;3081;50.584;7.032;2023-03-23T09:01:40;14.60;99.90
6102;DHT22;3081;50.584;7.032;2023-03-23T09:04:08;14.60;99.90
6102;DHT22;3081;50.584;7.032;2023-03-23T09:06:37;14.70;99.90
6102;DHT22;3081;50.584;7.032;2023-03-23T09:09:04;14.80;99.90
6102;DHT22;3081;50.584;7.032;2023-03-23T09:11:32;14.90;99.90
6102;DHT22;3081;50.584;7.032;2023-03-23T09:14:00;14.80;99.90
6102;DHT22;3081;50.584;7.032;2023-03-23T09:16:27;14.80;99.90
6102;DHT22;3081;50.584;7.032;2023-03-23T09:18:54;14.80;99.90
6102;DHT22;3081;50.584;7.032;2023-03-23T09:21:22;14.90;99.90
6102;DHT22;3081;50.584;7.032;2023-03-23T09:23:50;15.20;99.90
6102;DHT22;3081;50.584;7.032;2023-03-23T09:26:17;15.20;99.90
6102;DHT22;3081;50.584;7.032;2023-03-23T09:28:45;15.30;99.90
6102;DHT22;3081;50.584;7.032;2023-03-23T09:31:12;15.30;99.90
6102;DHT22;3081;50.584;7.032;2023-03-23T09:33:39;15.30;99.90
6102;DHT22;3081;50.584;7.032;2023-03-23T09:36:07;15.50;99.90
6102;DHT22;3081;50.584;7.032;2023-03-23T09:38:38;15.80;99.90
6102;DHT22;3081;50.584;7.032;2023-03-23T09:41:14;15.90;99.90
6102;DHT22;3081;50.584;7.032;2023-03-23T09:43:59;16.10;99.90
6102;DHT22;3081;50.584;7.032;2023-03-23T09:46:38;16.20;99.90
6102;DHT22;3081;50.584;7.032;2023-03-23T09:49:10;16.30;99.90
6102;DHT22;3081;50.584;7.032;2023-03-23T09:51:42;16.40;99.90
6102;DHT22;3081;50.584;7.032;2023-03-23T09:54:14;16.70;99.90
6102;DHT22;3081;50.584;7.032;2023-03-23T09:56:45;16.90;99.90
6102;DHT22;3081;50.584;7.032;2023-03-23T09:59:17;16.90;99.90
6102;DHT22;3081;50.584;7.032;2023-03-23T10:01:48;17.20;99.90
6102;DHT22;3081;50.584;7.032;2023-03-23T10:04:24;17.20;99.90
6102;DHT22;3081;50.584;7.032;2023-03-23T10:06:58;17.00;99.90
6102;DHT22;3081;50.584;7.032;2023-03-23T10:09:26;16.90;99.90
6102;DHT22;3081;50.584;7.032;2023-03-23T10:12:04;16.90;99.90
6102;DHT22;3081;50.584;7.032;2023-03-23T10:14:52;16.90;99.90
6102;DHT22;3081;50.584;7.032;2023-03-23T10:17:28;17.00;99.90
6102;DHT22;3081;50.584;7.032;2023-03-23T10:20:13;16.60;99.90
6102;DHT22;3081;50.584;7.032;2023-03-23T10:22:45;16.20;99.90
6102;DHT22;3081;50.584;7.032;2023-03-23T10:25:16;16.10;99.90
6102;DHT22;3081;50.584;7.032;2023-03-23T10:27:50;16.20;99.90
6102;DHT22;3081;50.584;7.032;2023-03-23T10:30:22;16.20;99.90
6102;DHT22;3081;50.584;7.032;2023-03-23T10:32:52;16.30;99.90
6102;DHT22;3081;50.584;7.032;2023-03-23T10:35:24;16.30;99.90
6102;DHT22;3081;50.584;7.032;2023-03-23T10:37:56;16.30;99.90
6102;DHT22;3081;50.584;7.032;2023-03-23T10:40:27;16.30;99.90
6102;DHT22;3081;50.584;7.032;2023-03-23T10:42:57;16.60;99.90
6102;DHT22;3081;50.584;7.032;2023-03-23T10:45:25;16.80;99.90
6102;DHT22;3081;50.584;7.032;2023-03-23T10:48:07;16.70;99.90
6102;DHT22;3081;50.584;7.032;2023-03-23T10:50:38;16.30;99.90
6102;DHT22;3081;50.584;7.032;2023-03-23T10:53:14;16.00;99.90
6102;DHT22;3081;50.584;7.032;2023-03-23T10:55:43;16.00;99.90
6102;DHT22;3081;50.584;7.032;2023-03-23T10:58:21;16.10;99.90
6102;DHT22;3081;50.584;7.032;2023-03-23T11:00:49;16.10;99.90
6102;DHT22;3081;50.584;7.032;2023-03-23T11:03:25;16.20;99.90
6102;DHT22;3081;50.584;7.032;2023-03-23T11:05:57;16.30;99.90
6102;DHT22;3081;50.584;7.032;2023-03-23T11:08:27;16.40;99.90
6102;DHT22;3081;50.584;7.032;2023-03-23T11:10:57;16.60;99.90
6102;DHT22;3081;50.584;7.032;2023-03-23T11:13:30;16.70;99.90
6102;DHT22;3081;50.584;7.032;2023-03-23T11:15:58;17.00;99.90
6102;DHT22;3081;50.584;7.032;2023-03-23T11:18:35;17.20;99.90
6102;DHT22;3081;50.584;7.032;2023-03-23T11:21:03;17.00;99.90
6102;DHT22;3081;50.584;7.032;2023-03-23T11:23:33;16.90;99.90
6102;DHT22;3081;50.584;7.032;2023-03-23T11:26:09;16.80;99.90
6102;DHT22;3081;50.584;7.032;2023-03-23T11:28:43;16.80;99.90
6102;DHT22;3081;50.584;7.032;2023-03-23T11:31:10;16.70;99.90
6102;DHT22;3081;50.584;7.032;2023-03-23T11:33:46;16.60;99.90
6102;DHT22;3081;50.584;7.032;2023-03-23T11:36:14;16.50;99.90
6102;DHT22;3081;50.584;7.032;2023-03-23T11:38:42;16.60;99.90
6102;DHT22;3081;50.584;7.032;2023-03-23T11:41:11;16.70;99.90
6102;DHT22;3081;50.584;7.032;2023-03-23T11:43:46;16.80;99.90
6102;DHT22;3081;50.584;7.032;2023-03-23T11:46:25;16.70;99.90
6102;DHT22;3081;50.584;7.032;2023-03-23T11:48:57;16.40;99.90
6102;DHT22;3081;50.584;7.032;2023-03-23T11:51:30;16.40;99.90
6102;DHT22;3081;50.584;7.032;2023-03-23T11:54:04;16.90;99.90
6102;DHT22;3081;50.584;7.032;2023-03-23T11:56:37;17.80;99.90
6102;DHT22;3081;50.584;7.032;2023-03-23T11:59:11;18.40;99.90
6102;DHT22;3081;50.584;7.032;2023-03-23T12:01:53;18.50;99.90
6102;DHT22;3081;50.584;7.032;2023-03-23T12:04:39;18.30;99.90
6102;DHT22;3081;50.584;7.032;2023-03-23T12:07:23;18.20;99.90
6102;DHT22;3081;50.584;7.032;2023-03-23T12:10:02;18.40;99.90
6102;DHT22;3081;50.584;7.032;2023-03-23T12:12:41;18.30;99.90
6102;DHT22;3081;50.584;7.032;2023-03-23T12:15:22;18.60;99.90
6102;DHT22;3081;50.584;7.032;2023-03-23T12:17:58;19.10;99.90
6102;DHT22;3081;50.584;7.032;2023-03-23T12:20:36;19.30;99.90
6102;DHT22;3081;50.584;7.032;2023-03-23T12:23:20;19.60;99.90
6102;DHT22;3081;50.584;7.032;2023-03-23T12:26:09;19.50;99.90
6102;DHT22;3081;50.584;7.032;2023-03-23T12:28:53;19.10;99.90
6102;DHT22;3081;50.584;7.032;2023-03-23T12:31:30;18.50;99.90
6102;DHT22;3081;50.584;7.032;2023-03-23T12:34:09;18.60;99.90
6102;DHT22;3081;50.584;7.032;2023-03-23T12:36:50;18.80;99.90
6102;DHT22;3081;50.584;7.032;2023-03-23T12:40:02;18.90;99.90
6102;DHT22;3081;50.584;7.032;2023-03-23T12:42:39;19.10;99.90
6102;DHT22;3081;50.584;7.032;2023-03-23T12:45:19;19.20;99.90
6102;DHT22;3081;50.584;7.032;2023-03-23T12:47:54;18.80;99.90
6102;DHT22;3081;50.584;7.032;2023-03-23T12:50:29;18.70;99.90
6102;DHT22;3081;50.584;7.032;2023-03-23T12:53:03;18.60;99.90
6102;DHT22;3081;50.584;7.032;2023-03-23T12:55:37;18.40;99.90
6102;DHT22;3081;50.584;7.032;2023-03-23T12:58:09;18.00;99.90
6102;DHT22;3081;50.584;7.032;2023-03-23T13:00:52;17.60;99.90
6102;DHT22;3081;50.584;7.032;2023-03-23T13:03:26;17.40;99.90
6102;DHT22;3081;50.584;7.032;2023-03-23T13:06:03;17.50;99.90
6102;DHT22;3081;50.584;7.032;2023-03-23T13:08:33;17.60;99.90
6102;DHT22;3081;50.584;7.032;2023-03-23T13:11:05;17.40;99.90
6102;DHT22;3081;50.584;7.032;2023-03-23T13:13:45;16.90;99.90
6102;DHT22;3081;50.584;7.032;2023-03-23T13:16:18;16.70;99.90
6102;DHT22;3081;50.584;7.032;2023-03-23T13:18:56;16.60;99.90
6102;DHT22;3081;50.584;7.032;2023-03-23T13:21:27;16.80;99.90
6102;DHT22;3081;50.584;7.032;2023-03-23T13:23:57;17.80;99.90
6102;DHT22;3081;50.584;7.032;2023-03-23T13:26:27;19.20;99.90
6102;DHT22;3081;50.584;7.032;2023-03-23T13:28:57;20.20;99.90
6102;DHT22;3081;50.584;7.032;2023-03-23T13:31:26;20.50;99.40
6102;DHT22;3081;50.584;7.032;2023-03-23T13:34:02;20.70;98.10
6102;DHT22;3081;50.584;7.032;2023-03-23T13:36:33;21.30;98.10
6102;DHT22;3081;50.584;7.032;2023-03-23T13:39:02;21.10;97.30
6102;DHT22;3081;50.584;7.032;2023-03-23T13:41:33;21.10;96.80
6102;DHT22;3081;50.584;7.032;2023-03-23T13:44:17;20.50;97.30
6102;DHT22;3081;50.584;7.032;2023-03-23T13:46:55;19.60;98.10
6102;DHT22;3081;50.584;7.032;2023-03-23T13:49:25;18.70;99.10
6102;DHT22;3081;50.584;7.032;2023-03-23T13:52:15;18.60;99.60
6102;DHT22;3081;50.584;7.032;2023-03-23T13:54:44;17.90;99.90
6102;DHT22;3081;50.584;7.032;2023-03-23T13:57:25;17.40;99.90
6102;DHT22;3081;50.584;7.032;2023-03-23T13:59:59;17.50;99.90
6102;DHT22;3081;50.584;7.032;2023-03-23T14:02:34;17.70;99.90
6102;DHT22;3081;50.584;7.032;2023-03-23T14:05:29;17.50;99.90
6102;DHT22;3081;50.584;7.032;2023-03-23T14:07:58;17.70;99.90
6102;DHT22;3081;50.584;7.032;2023-03-23T14:10:35;18.50;99.90
6102;DHT22;3081;50.584;7.032;2023-03-23T14:13:19;19.30;99.90
6102;DHT22;3081;50.584;7.032;2023-03-23T14:15:56;19.70;99.50
6102;DHT22;3081;50.584;7.032;2023-03-23T14:18:27;19.20;99.50
6102;DHT22;3081;50.584;7.032;2023-03-23T14:20:57;18.40;99.90
6102;DHT22;3081;50.584;7.032;2023-03-23T14:23:24;17.90;99.90
6102;DHT22;3081;50.584;7.032;2023-03-23T14:25:56;17.50;99.90
6102;DHT22;3081;50.584;7.032;2023-03-23T14:28:31;17.40;99.90
6102;DHT22;3081;50.584;7.032;2023-03-23T14:30:58;17.90;99.90
6102;DHT22;3081;50.584;7.032;2023-03-23T14:33:26;18.80;99.90
6102;DHT22;3081;50.584;7.032;2023-03-23T14:35:54;20.30;99.90
6102;DHT22;3081;50.584;7.032;2023-03-23T14:38:25;22.20;96.00
6102;DHT22;3081;50.584;7.032;2023-03-23T14:41:00;21.60;95.90
6102;DHT22;3081;50.584;7.032;2023-03-23T14:43:28;20.70;97.40
6102;DHT22;3081;50.584;7.032;2023-03-23T14:45:58;20.00;97.40
6102;DHT22;3081;50.584;7.032;2023-03-23T14:48:26;19.70;98.30
6102;DHT22;3081;50.584;7.032;2023-03-23T14:50:57;19.30;98.90
6102;DHT22;3081;50.584;7.032;2023-03-23T14:53:29;19.20;98.90
6102;DHT22;3081;50.584;7.032;2023-03-23T14:56:01;18.90;98.70
6102;DHT22;3081;50.584;7.032;2023-03-23T14:58:30;18.60;99.20
6102;DHT22;3081;50.584;7.032;2023-03-23T15:00:59;18.40;99.40
6102;DHT22;3081;50.584;7.032;2023-03-23T15:03:27;18.40;99.90
6102;DHT22;3081;50.584;7.032;2023-03-23T15:05:57;18.80;99.80
6102;DHT22;3081;50.584;7.032;2023-03-23T15:08:29;19.20;98.50
6102;DHT22;3081;50.584;7.032;2023-03-23T15:11:03;19.10;98.60
6102;DHT22;3081;50.584;7.032;2023-03-23T15:13:31;20.90;97.70
6102;DHT22;3081;50.584;7.032;2023-03-23T15:16:06;22.00;95.20
6102;DHT22;3081;50.584;7.032;2023-03-23T15:18:36;20.90;95.00
6102;DHT22;3081;50.584;7.032;2023-03-23T15:21:12;19.80;96.90
6102;DHT22;3081;50.584;7.032;2023-03-23T15:23:47;20.50;97.10
6102;DHT22;3081;50.584;7.032;2023-03-23T15:26:29;21.80;94.90
6102;DHT22;3081;50.584;7.032;2023-03-23T15:29:11;22.60;93.70
6102;DHT22;3081;50.584;7.032;2023-03-23T15:31:41;23.60;92.70
6102;DHT22;3081;50.584;7.032;2023-03-23T15:34:13;24.30;90.70
6102;DHT22;3081;50.584;7.032;2023-03-23T15:36:41;24.20;90.70
6102;DHT22;3081;50.584;7.032;2023-03-23T15:39:12;23.80;89.30
6102;DHT22;3081;50.584;7.032;2023-03-23T15:41:47;22.40;90.70
6102;DHT22;3081;50.584;7.032;2023-03-23T15:44:27;20.90;92.40
6102;DHT22;3081;50.584;7.032;2023-03-23T15:49:46;18.80;95.30
6102;DHT22;3081;50.584;7.032;2023-03-23T15:52:15;18.50;96.10
6102;DHT22;3081;50.584;7.032;2023-03-23T15:54:49;18.70;95.80
6102;DHT22;3081;50.584;7.032;2023-03-23T15:57:16;19.70;95.60
6102;DHT22;3081;50.584;7.032;2023-03-23T15:59:43;20.50;94.80
6102;DHT22;3081;50.584;7.032;2023-03-23T16:02:17;20.90;93.40
6102;DHT22;3081;50.584;7.032;2023-03-23T16:04:45;21.00;93.40
6102;DHT22;3081;50.584;7.032;2023-03-23T16:07:12;21.00;92.80
6102;DHT22;3081;50.584;7.032;2023-03-23T16:09:39;20.50;93.50
6102;DHT22;3081;50.584;7.032;2023-03-23T16:12:11;20.70;93.10
6102;DHT22;3081;50.584;7.032;2023-03-23T16:14:39;21.00;93.00
6102;DHT22;3081;50.584;7.032;2023-03-23T16:17:09;21.30;91.70
6102;DHT22;3081;50.584;7.032;2023-03-23T16:19:38;21.30;91.00
6102;DHT22;3081;50.584;7.032;2023-03-23T16:22:05;21.80;91.40
6102;DHT22;3081;50.584;7.032;2023-03-23T16:24:32;22.90;89.60
6102;DHT22;3081;50.584;7.032;2023-03-23T16:26:59;22.70;88.60
6102;DHT22;3081;50.584;7.032;2023-03-23T16:29:27;21.90;90.00
6102;DHT22;3081;50.584;7.032;2023-03-23T16:31:54;21.00;90.90
6102;DHT22;3081;50.584;7.032;2023-03-23T16:34:21;20.30;91.30